createdAt,value
2018-12-31T00:01:14.910Z,20.95
2018-12-31T00:03:44.515Z,18.57
2018-12-31T00:06:13.944Z,26.12
2018-12-31T00:08:43.401Z,21.60
2018-12-31T00:11:12.958Z,18.60
2018-12-31T00:13:42.378Z,19.87
2018-12-31T00:16:11.818Z,21.77
2018-12-31T00:18:41.312Z,25.43
2018-12-31T00:21:10.852Z,26.80
2018-12-31T00:23:40.264Z,24.73
2018-12-31T00:26:09.886Z,27.17
2018-12-31T00:28:39.331Z,23.07
2018-12-31T00:31:08.778Z,26.00
2018-12-31T00:33:38.330Z,23.20
2018-12-31T00:36:07.831Z,29.60
2018-12-31T00:38:37.254Z,23.30
2018-12-31T00:41:06.825Z,22.07
2018-12-31T00:43:36.308Z,19.92
2018-12-31T00:46:05.774Z,19.50
2018-12-31T00:48:35.418Z,23.40
2018-12-31T00:51:04.864Z,32.40
2018-12-31T00:53:34.672Z,26.57
2018-12-31T00:56:04.206Z,26.27
2018-12-31T00:58:33.647Z,30.97
2018-12-31T01:01:03.114Z,19.73
2018-12-31T01:03:32.786Z,29.97
2018-12-31T01:06:02.239Z,28.67
2018-12-31T01:08:31.659Z,29.47
2018-12-31T01:11:01.149Z,25.63
2018-12-31T01:13:30.566Z,24.47
2018-12-31T01:16:00.011Z,26.53
2018-12-31T01:18:29.561Z,25.57
2018-12-31T01:20:59.462Z,27.90
2018-12-31T01:23:29.483Z,30.02
2018-12-31T01:25:59.559Z,30.10
2018-12-31T01:28:29.731Z,29.63
2018-12-31T01:30:59.497Z,28.38
2018-12-31T01:33:30.216Z,22.95
2018-12-31T01:35:59.903Z,29.93
2018-12-31T01:38:29.557Z,26.90
2018-12-31T01:40:59.563Z,26.35
2018-12-31T01:43:29.491Z,28.25
2018-12-31T01:45:59.580Z,28.27
2018-12-31T01:48:29.834Z,31.52
2018-12-31T01:50:59.474Z,25.23
2018-12-31T01:53:29.522Z,25.82
2018-12-31T01:55:59.693Z,26.07
2018-12-31T01:58:29.548Z,31.45
2018-12-31T02:00:59.536Z,25.32
2018-12-31T02:03:29.627Z,24.92
2018-12-31T02:05:59.609Z,29.48
2018-12-31T02:08:29.587Z,27.00
2018-12-31T02:10:59.607Z,28.00
2018-12-31T02:13:29.556Z,24.10
2018-12-31T02:15:59.571Z,24.47
2018-12-31T02:18:29.807Z,23.83
2018-12-31T02:20:59.619Z,25.12
2018-12-31T02:23:29.635Z,25.00
2018-12-31T02:25:59.756Z,25.40
2018-12-31T02:28:29.674Z,22.45
2018-12-31T02:31:00.215Z,22.60
2018-12-31T02:33:29.760Z,24.10
2018-12-31T02:35:59.618Z,22.58
2018-12-31T02:38:29.689Z,24.85
2018-12-31T02:41:00.114Z,25.57
2018-12-31T02:43:29.750Z,22.93
2018-12-31T02:46:00.530Z,22.82
2018-12-31T02:48:30.100Z,20.10
2018-12-31T02:50:59.804Z,26.40
2018-12-31T02:53:29.723Z,26.55
2018-12-31T02:55:59.840Z,24.70
2018-12-31T02:58:29.730Z,26.40
2018-12-31T03:00:59.675Z,31.87
2018-12-31T03:03:29.844Z,26.57
2018-12-31T03:05:59.662Z,30.00
2018-12-31T03:08:29.936Z,32.98
2018-12-31T03:10:59.881Z,30.85
2018-12-31T03:13:29.736Z,29.57
2018-12-31T03:15:59.744Z,30.00
2018-12-31T03:18:29.761Z,29.92
2018-12-31T03:20:59.771Z,26.37
2018-12-31T03:23:29.844Z,32.15
2018-12-31T03:25:59.857Z,28.45
2018-12-31T03:28:29.718Z,28.05
2018-12-31T03:31:00.043Z,28.67
2018-12-31T03:33:29.797Z,30.00
2018-12-31T03:35:59.749Z,30.20
2018-12-31T03:38:29.739Z,32.93
2018-12-31T03:41:00.518Z,30.17
2018-12-31T03:43:29.999Z,28.97
2018-12-31T03:45:59.721Z,35.90
2018-12-31T03:48:29.934Z,32.93
2018-12-31T03:50:59.824Z,31.27
2018-12-31T03:53:29.933Z,34.70
2018-12-31T03:56:00.725Z,31.62
2018-12-31T03:58:30.142Z,34.43
2018-12-31T04:00:59.818Z,32.48
2018-12-31T04:03:29.837Z,31.57
2018-12-31T04:05:59.776Z,31.35
2018-12-31T04:08:29.795Z,31.17
2018-12-31T04:10:59.869Z,28.35
2018-12-31T04:13:29.833Z,26.33
2018-12-31T04:15:59.819Z,29.55
2018-12-31T04:18:29.904Z,28.27
2018-12-31T04:20:59.808Z,28.07
2018-12-31T04:23:29.831Z,30.95
2018-12-31T04:25:59.958Z,27.98
2018-12-31T04:28:29.867Z,32.83
2018-12-31T04:30:59.827Z,34.58
2018-12-31T04:33:29.977Z,29.57
2018-12-31T04:35:59.861Z,34.15
2018-12-31T04:38:29.986Z,33.88
2018-12-31T04:40:59.985Z,30.25
2018-12-31T04:43:29.865Z,31.95
2018-12-31T04:46:00.942Z,30.30
2018-12-31T04:48:30.570Z,29.27
2018-12-31T04:50:59.984Z,29.30
2018-12-31T04:53:29.898Z,24.95
2018-12-31T04:55:59.997Z,29.23
2018-12-31T04:58:29.864Z,29.10
2018-12-31T05:00:59.879Z,28.62
2018-12-31T05:03:29.996Z,26.35
2018-12-31T05:05:59.897Z,26.93
2018-12-31T05:08:29.867Z,30.65
2018-12-31T05:11:00.077Z,30.72
2018-12-31T05:13:29.862Z,28.98
2018-12-31T05:15:59.908Z,26.65
2018-12-31T05:18:30.093Z,30.02
2018-12-31T05:20:59.944Z,28.95
2018-12-31T05:23:29.930Z,29.65
2018-12-31T05:26:00.049Z,28.63
2018-12-31T05:28:29.927Z,26.33
2018-12-31T05:30:59.946Z,27.55
2018-12-31T05:33:30.070Z,26.42
2018-12-31T05:35:59.940Z,26.97
2018-12-31T05:38:29.986Z,28.55
2018-12-31T05:41:00.235Z,31.73
2018-12-31T05:43:31.447Z,27.47
2018-12-31T05:46:01.005Z,30.50
2018-12-31T05:48:30.640Z,32.03
2018-12-31T05:51:00.043Z,29.17
2018-12-31T05:53:30.003Z,29.02
2018-12-31T05:56:00.400Z,28.85
2018-12-31T05:58:30.076Z,33.00
2018-12-31T06:01:01.473Z,30.65
2018-12-31T06:03:31.193Z,28.30
2018-12-31T06:06:00.607Z,28.37
2018-12-31T06:08:30.057Z,31.20
2018-12-31T06:11:00.075Z,31.57
2018-12-31T06:13:30.043Z,29.75
2018-12-31T06:16:00.056Z,34.90
2018-12-31T06:18:30.191Z,34.40
2018-12-31T06:21:00.061Z,34.45
2018-12-31T06:23:30.094Z,40.45
2018-12-31T06:26:00.200Z,33.95
2018-12-31T06:28:30.113Z,37.53
2018-12-31T06:31:00.161Z,35.63
2018-12-31T06:33:30.235Z,39.98
2018-12-31T06:36:00.051Z,37.45
2018-12-31T06:40:58.279Z,38.40
2018-12-31T06:43:27.736Z,34.97
2018-12-31T06:45:57.230Z,37.63
2018-12-31T06:48:26.810Z,34.13
2018-12-31T06:50:56.321Z,36.83
2018-12-31T06:53:25.787Z,35.20
2018-12-31T06:55:55.400Z,32.10
2018-12-31T06:58:25.543Z,38.53
2018-12-31T07:00:55.057Z,39.43
2018-12-31T07:03:24.671Z,34.53
2018-12-31T07:05:54.130Z,32.93
2018-12-31T07:08:23.611Z,32.50
2018-12-31T07:10:53.119Z,31.17
2018-12-31T07:13:22.547Z,32.00
2018-12-31T07:15:52.104Z,32.08
2018-12-31T07:18:21.597Z,31.57
2018-12-31T07:20:51.012Z,30.23
2018-12-31T07:23:20.444Z,29.90
2018-12-31T07:25:49.997Z,28.90
2018-12-31T07:28:19.424Z,31.80
2018-12-31T07:30:48.847Z,30.20
2018-12-31T07:33:18.375Z,29.90
2018-12-31T07:35:47.807Z,31.77
2018-12-31T07:38:17.265Z,31.13
2018-12-31T07:40:46.919Z,30.67
2018-12-31T07:43:17.277Z,29.47
2018-12-31T07:45:46.878Z,31.13
2018-12-31T07:48:16.493Z,31.07
2018-12-31T07:50:45.983Z,28.27
2018-12-31T07:53:15.462Z,31.00
2018-12-31T07:55:45.221Z,28.57
2018-12-31T07:58:14.656Z,25.37
2018-12-31T08:00:44.204Z,32.17
2018-12-31T08:03:13.797Z,30.17
2018-12-31T08:05:43.241Z,29.57
2018-12-31T08:08:12.852Z,27.70
2018-12-31T08:10:42.407Z,29.00
2018-12-31T08:13:11.820Z,26.10
2018-12-31T08:15:41.270Z,26.93
2018-12-31T08:18:10.760Z,26.73
2018-12-31T08:20:40.193Z,28.80
2018-12-31T08:23:09.624Z,25.73
2018-12-31T08:25:39.164Z,27.30
2018-12-31T08:28:08.595Z,25.83
2018-12-31T08:30:38.065Z,27.33
2018-12-31T08:33:07.704Z,25.67
2018-12-31T08:35:37.179Z,27.40
2018-12-31T08:38:06.748Z,22.90
2018-12-31T08:40:36.327Z,25.37
2018-12-31T08:43:05.791Z,23.77
2018-12-31T08:45:35.230Z,23.52
2018-12-31T08:48:04.737Z,20.90
2018-12-31T08:50:34.182Z,26.33
2018-12-31T08:53:03.683Z,22.80
2018-12-31T08:55:33.212Z,23.50
2018-12-31T08:58:02.664Z,23.63
2018-12-31T09:00:32.114Z,23.07
2018-12-31T09:03:01.726Z,23.27
2018-12-31T09:05:31.127Z,23.67
2018-12-31T09:08:00.754Z,22.10
2018-12-31T09:10:30.894Z,23.95
2018-12-31T09:13:00.694Z,20.37
2018-12-31T09:15:30.716Z,22.98
2018-12-31T09:18:00.836Z,23.02
2018-12-31T09:20:30.768Z,24.12
2018-12-31T09:23:00.709Z,30.92
2018-12-31T09:25:30.987Z,34.93
2018-12-31T09:28:00.767Z,24.63
2018-12-31T09:30:30.759Z,29.85
2018-12-31T09:33:00.842Z,20.97
2018-12-31T09:35:30.813Z,24.50
2018-12-31T09:38:00.799Z,25.97
2018-12-31T09:40:30.915Z,22.17
2018-12-31T09:43:01.262Z,24.32
2018-12-31T09:45:30.797Z,24.13
2018-12-31T09:48:01.240Z,21.80
2018-12-31T09:50:30.850Z,23.90
2018-12-31T09:53:00.787Z,23.07
2018-12-31T09:55:30.922Z,21.97
2018-12-31T09:58:00.835Z,25.00
2018-12-31T10:00:30.874Z,22.02
2018-12-31T10:03:00.978Z,26.68
2018-12-31T10:05:30.885Z,27.40
2018-12-31T10:08:00.913Z,19.60
2018-12-31T10:10:31.050Z,24.20
2018-12-31T10:13:01.253Z,19.63
2018-12-31T10:15:30.982Z,18.87
2018-12-31T10:18:01.088Z,18.40
2018-12-31T10:20:31.052Z,21.90
2018-12-31T10:23:01.099Z,19.50
2018-12-31T10:25:32.634Z,19.70
2018-12-31T10:28:02.083Z,17.80
2018-12-31T10:30:31.545Z,18.47
2018-12-31T10:33:01.187Z,22.87
2018-12-31T10:35:31.101Z,17.35
2018-12-31T10:38:01.066Z,21.50
2018-12-31T10:40:31.115Z,21.30
2018-12-31T10:43:01.199Z,19.15
2018-12-31T10:45:31.113Z,17.10
2018-12-31T10:48:01.157Z,18.17
2018-12-31T10:50:31.116Z,17.95
2018-12-31T10:53:01.083Z,16.82
2018-12-31T10:55:31.205Z,18.15
2018-12-31T10:58:01.131Z,18.60
2018-12-31T11:00:31.135Z,17.62
2018-12-31T11:03:01.187Z,17.65
2018-12-31T11:05:31.128Z,17.92
2018-12-31T11:08:01.085Z,16.60
2018-12-31T11:10:31.505Z,19.07
2018-12-31T11:13:01.142Z,16.40
2018-12-31T11:15:31.143Z,13.48
2018-12-31T11:18:01.562Z,18.42
2018-12-31T11:20:31.121Z,17.40
2018-12-31T11:23:01.138Z,15.83
2018-12-31T11:25:31.222Z,16.65
2018-12-31T11:28:01.121Z,14.15
2018-12-31T11:30:31.326Z,13.25
2018-12-31T11:33:01.312Z,12.78
2018-12-31T11:35:31.175Z,14.13
2018-12-31T11:38:01.191Z,14.05
2018-12-31T11:40:31.279Z,15.40
2018-12-31T11:43:01.186Z,11.95
2018-12-31T11:45:31.207Z,13.55
2018-12-31T11:48:01.307Z,13.62
2018-12-31T11:50:31.209Z,16.50
2018-12-31T11:53:01.193Z,15.18
2018-12-31T11:55:31.355Z,12.47
2018-12-31T11:58:01.263Z,11.75
2018-12-31T12:00:31.206Z,13.83
2018-12-31T12:03:01.369Z,13.48
2018-12-31T12:05:31.242Z,12.82
2018-12-31T12:08:01.299Z,12.50
2018-12-31T12:10:31.265Z,12.90
2018-12-31T12:13:01.206Z,10.43
2018-12-31T12:15:31.235Z,12.20
2018-12-31T12:18:01.634Z,11.33
2018-12-31T12:20:31.576Z,11.33
2018-12-31T12:23:01.290Z,12.35
2018-12-31T12:25:31.386Z,13.08
2018-12-31T12:28:01.276Z,11.12
2018-12-31T12:30:31.282Z,10.32
2018-12-31T12:33:01.420Z,10.95
2018-12-31T12:35:31.321Z,11.88
2018-12-31T12:38:01.374Z,9.90
2018-12-31T12:40:31.418Z,10.88
2018-12-31T12:43:01.290Z,10.60
2018-12-31T12:45:31.349Z,10.28
2018-12-31T12:48:01.364Z,11.35
2018-12-31T12:50:31.319Z,10.88
2018-12-31T12:53:01.314Z,12.20
2018-12-31T12:55:31.768Z,10.98
2018-12-31T12:58:01.374Z,10.90
2018-12-31T13:00:31.574Z,12.68
2018-12-31T13:03:01.528Z,13.55
2018-12-31T13:05:31.354Z,14.47
2018-12-31T13:08:01.383Z,13.80
2018-12-31T13:10:31.370Z,10.70
2018-12-31T13:13:01.373Z,12.82
2018-12-31T13:15:31.332Z,10.63
2018-12-31T13:18:01.444Z,13.80
2018-12-31T13:20:31.308Z,18.23
2018-12-31T13:23:01.495Z,20.77
2018-12-31T13:25:31.559Z,22.32
2018-12-31T13:28:01.373Z,25.48
2018-12-31T13:30:33.204Z,23.47
2018-12-31T13:33:02.633Z,18.90
2018-12-31T13:35:32.110Z,20.43
2018-12-31T13:38:01.509Z,20.53
2018-12-31T13:40:31.498Z,19.62
2018-12-31T13:43:01.513Z,19.52
2018-12-31T13:45:31.379Z,22.03
2018-12-31T13:48:01.931Z,22.15
2018-12-31T13:50:31.888Z,17.20
2018-12-31T13:53:01.387Z,25.13
2018-12-31T13:55:31.538Z,20.05
2018-12-31T13:58:01.400Z,22.07
2018-12-31T14:00:31.432Z,22.58
2018-12-31T14:03:01.579Z,22.95
2018-12-31T14:05:31.463Z,20.82
2018-12-31T14:08:01.443Z,22.62
2018-12-31T14:10:31.452Z,23.22
2018-12-31T14:13:01.526Z,21.57
2018-12-31T14:15:31.477Z,21.87
2018-12-31T14:18:01.574Z,21.20
2018-12-31T14:20:31.495Z,20.00
2018-12-31T14:23:02.249Z,25.83
2018-12-31T14:25:31.695Z,23.93
2018-12-31T14:28:01.887Z,28.15
2018-12-31T14:30:31.624Z,28.10
2018-12-31T14:33:01.449Z,24.40
2018-12-31T14:35:32.108Z,28.62
2018-12-31T14:38:01.947Z,25.43
2018-12-31T14:40:31.473Z,27.02
2018-12-31T14:43:01.649Z,26.90
2018-12-31T14:45:31.655Z,29.10
2018-12-31T14:48:01.564Z,23.57
2018-12-31T14:50:31.562Z,28.95
2018-12-31T14:53:01.650Z,28.00
2018-12-31T14:55:31.725Z,25.62
2018-12-31T14:58:01.559Z,23.10
2018-12-31T15:00:31.667Z,30.52
2018-12-31T15:03:01.526Z,30.08
2018-12-31T15:05:31.516Z,22.65
2018-12-31T15:08:02.232Z,25.85
2018-12-31T15:10:31.699Z,23.87
2018-12-31T15:13:01.603Z,27.77
2018-12-31T15:15:31.619Z,29.52
2018-12-31T15:18:01.536Z,27.00
2018-12-31T15:20:31.743Z,28.17
2018-12-31T15:23:01.636Z,24.60
2018-12-31T15:25:31.761Z,27.32
2018-12-31T15:28:01.558Z,26.65
2018-12-31T15:30:31.883Z,25.65
2018-12-31T15:33:01.571Z,23.73
2018-12-31T15:35:31.582Z,23.52
2018-12-31T15:38:01.780Z,26.75
2018-12-31T15:40:31.576Z,26.52
2018-12-31T15:43:01.700Z,63.92
2018-12-31T15:45:33.260Z,30.77
2018-12-31T15:48:02.738Z,28.83
2018-12-31T15:50:32.184Z,21.80
2018-12-31T15:53:01.879Z,25.13
2018-12-31T15:55:31.649Z,27.87
2018-12-31T15:58:01.587Z,22.82
2018-12-31T16:00:31.775Z,30.62
2018-12-31T16:03:01.673Z,30.12
2018-12-31T16:05:32.444Z,31.33
2018-12-31T16:08:02.045Z,28.47
2018-12-31T16:10:31.767Z,27.93
2018-12-31T16:13:01.797Z,26.75
2018-12-31T16:15:31.800Z,28.65
2018-12-31T16:18:01.638Z,32.45
2018-12-31T16:20:31.630Z,24.15
2018-12-31T16:23:01.824Z,24.10
2018-12-31T16:25:31.703Z,27.73
2018-12-31T16:28:01.695Z,30.25
2018-12-31T16:30:31.963Z,24.90
2018-12-31T16:33:03.638Z,28.57
2018-12-31T16:35:33.133Z,27.57
2018-12-31T16:38:02.625Z,28.77
2018-12-31T16:40:32.125Z,31.47
2018-12-31T16:43:01.673Z,30.25
2018-12-31T16:45:32.057Z,27.17
2018-12-31T16:48:01.773Z,23.50
2018-12-31T16:50:31.906Z,25.17
2018-12-31T16:53:01.847Z,23.40
2018-12-31T16:55:31.718Z,28.15
2018-12-31T16:58:02.011Z,29.35
2018-12-31T17:00:31.778Z,25.60
2018-12-31T17:03:01.718Z,24.05
2018-12-31T17:05:31.764Z,25.27
2018-12-31T17:08:01.781Z,25.17
2018-12-31T17:10:31.715Z,24.75
2018-12-31T17:13:02.223Z,22.50
2018-12-31T17:15:32.343Z,25.10
2018-12-31T17:18:02.229Z,22.90
2018-12-31T17:20:50.852Z,22.73
2018-12-31T17:23:20.447Z,22.43
2018-12-31T17:25:50.040Z,22.13
2018-12-31T17:28:38.628Z,22.03
2018-12-31T17:31:08.097Z,18.27
2018-12-31T17:33:37.687Z,19.33
2018-12-31T17:36:07.467Z,21.33
2018-12-31T17:38:36.972Z,21.12
2018-12-31T17:41:06.488Z,21.80
2018-12-31T17:43:36.119Z,20.33
2018-12-31T17:46:05.679Z,25.77
2018-12-31T17:48:35.109Z,23.63
2018-12-31T17:51:04.990Z,20.20
2018-12-31T17:53:34.440Z,22.97
2018-12-31T17:56:04.662Z,21.37
2018-12-31T17:58:34.246Z,28.07
2018-12-31T18:01:03.652Z,31.53
2018-12-31T18:03:33.390Z,25.13
2018-12-31T18:06:03.069Z,29.33
2018-12-31T18:08:32.490Z,23.23
2018-12-31T18:11:04.735Z,25.82
2018-12-31T18:13:34.305Z,25.17
2018-12-31T18:16:03.926Z,23.67
2018-12-31T18:18:33.354Z,18.87
2018-12-31T18:21:06.016Z,26.67
2018-12-31T18:23:35.474Z,29.57
2018-12-31T18:26:05.178Z,29.57
2018-12-31T18:28:34.784Z,26.50
2018-12-31T18:31:04.250Z,20.60
2018-12-31T18:33:33.649Z,22.60
2018-12-31T18:36:03.259Z,19.37
2018-12-31T18:38:32.713Z,15.30
2018-12-31T18:41:02.308Z,16.95
2018-12-31T18:43:32.356Z,14.33
2018-12-31T18:46:03.154Z,16.87
2018-12-31T18:48:32.591Z,16.13
2018-12-31T18:51:02.675Z,17.07
2018-12-31T18:53:32.390Z,16.17
2018-12-31T18:56:02.336Z,17.12
2018-12-31T18:58:34.463Z,17.12
2018-12-31T19:01:03.925Z,15.40
2018-12-31T19:03:33.442Z,19.67
2018-12-31T19:06:03.181Z,19.30
2018-12-31T19:08:33.276Z,20.93
2018-12-31T19:11:02.744Z,20.07
2018-12-31T19:13:32.470Z,15.55
2018-12-31T19:16:02.380Z,17.42
2018-12-31T19:18:32.365Z,17.52
2018-12-31T19:21:02.438Z,19.10
2018-12-31T19:23:32.462Z,17.25
2018-12-31T19:26:02.449Z,20.97
2018-12-31T19:28:32.488Z,19.25
2018-12-31T19:31:02.539Z,19.50
2018-12-31T19:33:32.440Z,20.50
2018-12-31T19:36:02.557Z,21.37
2018-12-31T19:38:32.508Z,21.68
2018-12-31T19:41:02.491Z,16.77
2018-12-31T19:43:32.593Z,20.52
2018-12-31T19:46:02.422Z,17.90
2018-12-31T19:48:32.526Z,22.22
2018-12-31T19:51:02.480Z,25.53
2018-12-31T19:53:32.490Z,20.40
2018-12-31T19:56:02.390Z,23.60
2018-12-31T19:58:32.618Z,19.48
2018-12-31T20:01:02.480Z,17.52
2018-12-31T20:03:32.432Z,21.70
2018-12-31T20:06:02.589Z,17.23
2018-12-31T20:08:32.432Z,19.10
2018-12-31T20:11:02.517Z,18.42
2018-12-31T20:13:32.681Z,16.23
2018-12-31T20:16:02.468Z,18.77
2018-12-31T20:18:32.477Z,16.97
2018-12-31T20:21:02.529Z,17.57
2018-12-31T20:23:32.468Z,19.95
2018-12-31T20:26:02.481Z,20.23
2018-12-31T20:28:32.917Z,17.07
2018-12-31T20:31:02.595Z,23.40
2018-12-31T20:33:32.545Z,21.90
2018-12-31T20:36:02.672Z,19.65
2018-12-31T20:38:32.539Z,22.75
2018-12-31T20:41:02.568Z,23.15
2018-12-31T20:43:33.030Z,26.02
2018-12-31T20:46:02.587Z,25.82
2018-12-31T20:48:32.596Z,25.70
2018-12-31T20:51:02.668Z,24.15
2018-12-31T20:53:32.624Z,29.10
2018-12-31T20:56:02.687Z,22.50
2018-12-31T20:58:51.234Z,19.60
2018-12-31T21:01:21.632Z,20.83
2018-12-31T21:03:51.094Z,18.13
2018-12-31T21:06:20.678Z,17.35
2018-12-31T21:08:50.189Z,21.43
2018-12-31T21:11:19.711Z,19.37
2018-12-31T21:13:49.502Z,22.83
2018-12-31T21:16:18.949Z,22.20
2018-12-31T21:18:48.408Z,17.60
2018-12-31T21:21:17.967Z,18.70
2018-12-31T21:23:47.432Z,14.73
2018-12-31T21:26:16.862Z,14.87
2018-12-31T21:28:46.885Z,16.93
2018-12-31T21:31:16.334Z,16.80
2018-12-31T21:33:45.899Z,18.23
2018-12-31T21:36:15.485Z,20.37
2018-12-31T21:38:46.022Z,14.73
2018-12-31T21:41:15.388Z,17.00
2018-12-31T21:43:44.979Z,17.63
2018-12-31T21:46:14.406Z,14.00
2018-12-31T21:48:44.008Z,13.40
2018-12-31T21:51:13.526Z,13.37
2018-12-31T21:53:43.035Z,13.40
2018-12-31T21:56:12.437Z,18.50
2018-12-31T21:58:42.038Z,25.72
2018-12-31T22:01:11.469Z,26.63
2018-12-31T22:03:40.939Z,25.93
2018-12-31T22:06:10.525Z,18.82
2018-12-31T22:08:39.969Z,25.27
2018-12-31T22:11:09.447Z,19.32
2018-12-31T22:13:38.902Z,20.80
2018-12-31T22:16:08.381Z,31.93
2018-12-31T22:18:37.853Z,23.27
2018-12-31T22:21:07.500Z,17.80
2018-12-31T22:23:36.921Z,17.13
2018-12-31T22:26:06.385Z,27.93
2018-12-31T22:28:35.869Z,30.50
2018-12-31T22:31:05.361Z,23.17
2018-12-31T22:33:34.787Z,18.60
2018-12-31T22:36:04.601Z,15.93
2018-12-31T22:38:34.095Z,18.77
2018-12-31T22:41:03.524Z,16.00
2018-12-31T22:43:33.428Z,14.80
2018-12-31T22:46:03.184Z,17.52
2018-12-31T22:48:33.205Z,18.77
2018-12-31T22:51:03.299Z,19.17
2018-12-31T22:53:33.370Z,20.52
2018-12-31T22:56:03.232Z,16.93
2018-12-31T22:58:33.469Z,22.50
2018-12-31T23:01:03.251Z,27.58
2018-12-31T23:03:33.310Z,40.17
2018-12-31T23:06:03.403Z,92.67
2018-12-31T23:08:33.321Z,130.43
2018-12-31T23:11:03.354Z,171.75
2018-12-31T23:13:37.202Z,229.28
2018-12-31T23:16:06.915Z,257.37
2018-12-31T23:18:36.368Z,267.67
2018-12-31T23:21:05.903Z,261.70
2018-12-31T23:23:35.330Z,233.73
2018-12-31T23:26:04.750Z,211.73
2018-12-31T23:28:34.186Z,208.02
2018-12-31T23:31:03.626Z,141.60
2018-12-31T23:33:33.328Z,143.90
2018-12-31T23:36:03.474Z,138.82
2018-12-31T23:38:33.314Z,139.25
2018-12-31T23:41:03.534Z,138.25
2018-12-31T23:43:33.435Z,104.40
2018-12-31T23:46:03.340Z,108.52
2018-12-31T23:48:33.328Z,87.82
2018-12-31T23:51:03.344Z,65.97
2018-12-31T23:53:33.400Z,63.48
2018-12-31T23:56:03.505Z,50.00
2018-12-31T23:58:33.492Z,49.80
